createdAt,value
2023-03-29T00:00:31.978Z,60.28
2023-03-29T00:02:59.563Z,60.27
2023-03-29T00:05:26.700Z,60.53
2023-03-29T00:07:54.465Z,60.51
2023-03-29T00:10:24.248Z,59.75
2023-03-29T00:12:52.704Z,59.70
2023-03-29T00:15:21.210Z,59.00
2023-03-29T00:17:48.760Z,58.74
2023-03-29T00:20:16.805Z,59.31
2023-03-29T00:22:48.585Z,59.15
2023-03-29T00:25:16.586Z,59.38
2023-03-29T00:27:43.678Z,58.84
2023-03-29T00:30:11.586Z,58.88
2023-03-29T00:32:39.232Z,59.08
2023-03-29T00:35:07.723Z,58.25
2023-03-29T00:37:35.180Z,58.66
2023-03-29T00:40:02.572Z,57.86
2023-03-29T00:42:33.236Z,57.46
2023-03-29T00:45:21.484Z,57.60
2023-03-29T00:47:57.278Z,57.28
2023-03-29T00:50:29.865Z,57.20
2023-03-29T00:53:04.958Z,57.21
2023-03-29T00:55:44.724Z,57.39
2023-03-29T00:58:15.994Z,57.53
2023-03-29T01:00:52.468Z,57.03
2023-03-29T01:03:27.615Z,56.76
2023-03-29T01:06:05.473Z,56.64
2023-03-29T01:08:39.908Z,57.08
2023-03-29T01:11:31.055Z,57.16
2023-03-29T01:14:05.705Z,56.70
2023-03-29T01:16:38.461Z,56.86
2023-03-29T01:19:09.044Z,56.69
2023-03-29T01:21:49.543Z,56.48
2023-03-29T01:24:46.148Z,56.96
2023-03-29T01:27:23.648Z,56.13
2023-03-29T01:29:57.481Z,56.68
2023-03-29T01:32:35.636Z,57.03
2023-03-29T01:35:10.753Z,57.78
2023-03-29T01:37:44.212Z,58.55
2023-03-29T01:40:12.371Z,58.39
2023-03-29T01:42:50.022Z,57.95
2023-03-29T01:45:31.508Z,58.48
2023-03-29T01:48:25.419Z,57.23
2023-03-29T01:50:56.025Z,57.14
2023-03-29T01:53:30.603Z,56.64
2023-03-29T01:56:05.230Z,56.75
2023-03-29T01:58:35.855Z,56.92
2023-03-29T02:01:06.083Z,57.06
2023-03-29T02:03:34.860Z,57.85
2023-03-29T02:06:05.486Z,58.54
2023-03-29T02:08:33.150Z,58.12
2023-03-29T02:11:01.633Z,57.96
2023-03-29T02:13:29.286Z,58.30
2023-03-29T02:15:56.817Z,59.12
2023-03-29T02:18:24.832Z,59.30
2023-03-29T02:20:53.220Z,59.73
2023-03-29T02:23:28.980Z,60.38
2023-03-29T02:25:57.248Z,59.96
2023-03-29T02:28:27.190Z,60.50
2023-03-29T02:31:06.546Z,60.79
2023-03-29T02:33:35.614Z,61.33
2023-03-29T02:36:15.857Z,62.12
2023-03-29T02:38:45.099Z,61.60
2023-03-29T02:41:13.172Z,62.17
2023-03-29T02:43:42.834Z,63.18
2023-03-29T02:46:12.650Z,63.20
2023-03-29T02:48:41.059Z,62.91
2023-03-29T02:51:19.429Z,63.35
2023-03-29T02:53:53.509Z,62.63
2023-03-29T02:56:21.227Z,63.01
2023-03-29T02:58:48.640Z,63.54
2023-03-29T03:01:17.890Z,63.30
2023-03-29T03:03:45.525Z,63.65
2023-03-29T03:06:13.646Z,64.03
2023-03-29T03:08:40.827Z,64.36
2023-03-29T03:11:08.638Z,64.06
2023-03-29T03:13:35.844Z,63.59
2023-03-29T03:16:03.417Z,63.61
2023-03-29T03:18:30.737Z,63.44
2023-03-29T03:21:01.916Z,63.25
2023-03-29T03:23:29.682Z,62.76
2023-03-29T03:25:57.422Z,63.01
2023-03-29T03:28:27.479Z,63.19
2023-03-29T03:30:55.755Z,63.46
2023-03-29T03:33:27.192Z,63.53
2023-03-29T03:36:13.394Z,63.85
2023-03-29T03:38:44.269Z,64.06
2023-03-29T03:41:11.825Z,63.62
2023-03-29T03:43:41.624Z,63.00
2023-03-29T03:46:09.479Z,62.74
2023-03-29T03:48:37.373Z,62.66
2023-03-29T03:51:17.987Z,62.79
2023-03-29T03:53:45.200Z,61.80
2023-03-29T03:56:13.560Z,61.42
2023-03-29T03:59:07.430Z,61.71
2023-03-29T04:01:43.911Z,61.70
2023-03-29T04:04:20.555Z,60.84
2023-03-29T04:07:03.323Z,59.86
2023-03-29T04:09:37.758Z,59.78
2023-03-29T04:12:25.878Z,59.17
2023-03-29T04:14:53.175Z,58.71
2023-03-29T04:17:24.660Z,59.08
2023-03-29T04:19:58.269Z,59.34
2023-03-29T04:22:28.337Z,59.35
2023-03-29T04:24:55.491Z,59.79
2023-03-29T04:27:58.507Z,59.60
2023-03-29T04:30:45.372Z,59.54
2023-03-29T04:33:47.814Z,59.79
2023-03-29T04:36:16.203Z,59.86
2023-03-29T04:38:47.412Z,59.29
2023-03-29T04:41:16.189Z,59.10
2023-03-29T04:44:03.700Z,58.30
2023-03-29T04:46:32.809Z,58.06
2023-03-29T04:49:06.377Z,57.56
2023-03-29T04:51:37.589Z,57.26
2023-03-29T04:54:05.528Z,56.72
2023-03-29T04:56:45.664Z,56.58
2023-03-29T04:59:33.377Z,56.20
2023-03-29T05:02:05.082Z,55.88
2023-03-29T05:04:33.164Z,55.77
2023-03-29T05:07:10.344Z,55.95
2023-03-29T05:09:37.837Z,56.08
2023-03-29T05:12:06.654Z,56.12
2023-03-29T05:14:46.105Z,55.44
2023-03-29T05:17:13.416Z,55.32
2023-03-29T05:19:40.978Z,55.33
2023-03-29T05:22:09.288Z,54.62
2023-03-29T05:24:37.585Z,54.81
2023-03-29T05:27:14.602Z,54.79
2023-03-29T05:29:44.916Z,54.32
2023-03-29T05:32:37.585Z,54.27
2023-03-29T05:35:06.265Z,53.64
2023-03-29T05:37:35.231Z,54.59
2023-03-29T05:40:10.374Z,55.21
2023-03-29T05:43:02.742Z,55.43
2023-03-29T05:45:30.273Z,55.31
2023-03-29T05:47:58.026Z,55.54
2023-03-29T05:50:25.752Z,55.28
2023-03-29T05:52:53.327Z,53.86
2023-03-29T05:55:20.546Z,54.60
2023-03-29T05:57:47.840Z,55.13
2023-03-29T06:00:25.838Z,55.82
2023-03-29T06:03:14.112Z,54.49
2023-03-29T06:05:49.962Z,54.59
2023-03-29T06:08:18.454Z,54.05
2023-03-29T06:11:06.345Z,53.27
2023-03-29T06:13:53.113Z,53.36
2023-03-29T06:16:20.725Z,53.29
2023-03-29T06:18:48.164Z,53.45
2023-03-29T06:21:15.570Z,54.06
2023-03-29T06:23:43.187Z,53.46
2023-03-29T06:26:11.094Z,53.33
2023-03-29T06:28:39.361Z,52.02
2023-03-29T06:31:06.896Z,52.82
2023-03-29T06:33:38.732Z,53.79
2023-03-29T06:36:29.012Z,53.62
2023-03-29T06:38:56.356Z,54.81
2023-03-29T06:41:44.404Z,54.64
2023-03-29T06:44:24.161Z,54.49
2023-03-29T06:47:00.683Z,53.86
2023-03-29T06:49:28.333Z,53.95
2023-03-29T06:52:06.177Z,53.53
2023-03-29T06:54:33.820Z,54.31
2023-03-29T06:57:04.850Z,53.84
2023-03-29T06:59:35.104Z,54.78
2023-03-29T07:02:16.849Z,55.03
2023-03-29T07:04:56.781Z,54.69
2023-03-29T07:07:44.114Z,54.52
2023-03-29T07:10:32.950Z,54.72
2023-03-29T07:13:23.826Z,55.29
2023-03-29T07:15:53.146Z,55.96
2023-03-29T07:18:44.454Z,55.14
2023-03-29T07:21:17.731Z,55.50
2023-03-29T07:23:47.467Z,55.68
2023-03-29T07:26:28.454Z,56.58
2023-03-29T07:28:56.592Z,55.62
2023-03-29T07:31:23.937Z,56.04
2023-03-29T07:33:56.864Z,56.55
2023-03-29T07:36:28.696Z,57.60
2023-03-29T07:38:57.253Z,57.27
2023-03-29T07:41:25.522Z,57.86
2023-03-29T07:44:06.601Z,57.97
2023-03-29T07:46:33.697Z,57.73
2023-03-29T07:49:00.952Z,56.88
2023-03-29T07:51:28.514Z,56.71
2023-03-29T07:54:05.541Z,56.18
2023-03-29T07:56:41.694Z,55.11
2023-03-29T07:59:17.835Z,55.14
2023-03-29T08:01:50.465Z,54.73
2023-03-29T08:04:31.997Z,54.48
2023-03-29T08:07:21.390Z,53.24
2023-03-29T08:10:09.957Z,53.41
2023-03-29T08:13:12.538Z,53.32
2023-03-29T08:15:52.077Z,53.95
2023-03-29T08:18:27.112Z,53.45
2023-03-29T08:20:54.211Z,53.19
2023-03-29T08:23:21.450Z,52.80
2023-03-29T08:25:52.282Z,52.83
2023-03-29T08:28:19.700Z,53.01
2023-03-29T08:30:51.151Z,52.72
2023-03-29T08:33:18.883Z,53.54
2023-03-29T08:35:51.743Z,53.20
2023-03-29T08:38:22.821Z,53.38
2023-03-29T08:40:52.103Z,53.46
2023-03-29T08:43:40.919Z,53.45
2023-03-29T08:46:39.725Z,52.77
2023-03-29T08:49:23.592Z,52.49
2023-03-29T08:52:01.467Z,51.28
2023-03-29T08:54:41.333Z,51.42
2023-03-29T08:57:25.862Z,50.11
2023-03-29T09:00:02.028Z,51.43
2023-03-29T09:02:36.126Z,50.97
2023-03-29T09:05:10.450Z,51.55
2023-03-29T09:07:42.326Z,50.54
2023-03-29T09:10:16.515Z,50.37
2023-03-29T09:13:04.196Z,49.67
2023-03-29T09:15:48.701Z,48.92
2023-03-29T09:19:17.498Z,50.54
2023-03-29T09:21:54.587Z,50.63
2023-03-29T09:25:02.139Z,50.21
2023-03-29T09:27:35.258Z,51.18
2023-03-29T09:30:34.806Z,51.82
2023-03-29T09:33:22.198Z,51.29
2023-03-29T09:36:18.895Z,51.81
2023-03-29T09:38:51.250Z,51.59
2023-03-29T09:41:26.818Z,51.54
2023-03-29T09:43:57.701Z,50.40
2023-03-29T09:46:45.249Z,49.55
2023-03-29T09:49:17.750Z,51.83
2023-03-29T09:51:49.652Z,51.08
2023-03-29T09:54:21.059Z,51.34
2023-03-29T09:57:19.598Z,50.89
2023-03-29T09:59:49.768Z,51.30
2023-03-29T10:02:20.170Z,51.65
2023-03-29T10:04:55.807Z,52.54
2023-03-29T10:07:23.752Z,51.31
2023-03-29T10:09:56.968Z,51.57
2023-03-29T10:12:24.991Z,52.54
2023-03-29T10:14:54.402Z,52.59
2023-03-29T10:17:28.263Z,52.99
2023-03-29T10:20:04.492Z,52.63
2023-03-29T10:22:41.278Z,53.47
2023-03-29T10:25:17.575Z,52.83
2023-03-29T10:27:48.218Z,53.35
2023-03-29T10:30:24.375Z,53.77
2023-03-29T10:33:01.285Z,53.32
2023-03-29T10:35:38.340Z,53.39
2023-03-29T10:38:10.709Z,53.71
2023-03-29T10:40:47.518Z,53.93
2023-03-29T10:43:17.477Z,53.65
2023-03-29T10:45:47.344Z,53.48
2023-03-29T10:48:16.328Z,53.38
2023-03-29T10:50:49.738Z,53.98
2023-03-29T10:53:27.760Z,55.13
2023-03-29T10:56:39.234Z,55.47
2023-03-29T10:59:28.680Z,56.16
2023-03-29T11:02:14.432Z,57.16
2023-03-29T11:05:00.368Z,57.54
2023-03-29T11:07:52.336Z,57.20
2023-03-29T11:10:43.313Z,56.26
2023-03-29T11:13:22.553Z,55.79
2023-03-29T11:16:11.053Z,55.44
2023-03-29T11:18:41.363Z,55.06
2023-03-29T11:21:23.719Z,54.63
2023-03-29T11:24:18.503Z,54.01
2023-03-29T11:27:16.212Z,55.53
2023-03-29T11:29:58.826Z,56.06
2023-03-29T11:32:49.181Z,56.00
2023-03-29T11:35:38.114Z,55.04
2023-03-29T11:38:32.439Z,54.91
2023-03-29T11:41:06.109Z,55.06
2023-03-29T11:43:33.419Z,54.75
2023-03-29T11:46:20.888Z,53.90
2023-03-29T11:48:55.918Z,53.49
2023-03-29T11:51:28.368Z,53.14
2023-03-29T11:54:13.429Z,53.94
2023-03-29T11:56:47.507Z,53.82
2023-03-29T11:59:23.710Z,54.66
2023-03-29T12:02:09.355Z,54.44
2023-03-29T12:04:46.741Z,54.16
2023-03-29T12:07:20.039Z,54.22
2023-03-29T12:09:55.024Z,53.52
2023-03-29T12:12:28.740Z,53.55
2023-03-29T12:15:09.691Z,53.41
2023-03-29T12:17:44.489Z,53.00
2023-03-29T12:20:19.666Z,52.62
2023-03-29T12:22:51.083Z,52.35
2023-03-29T12:25:47.748Z,53.24
2023-03-29T12:28:15.266Z,53.59
2023-03-29T12:31:07.687Z,54.02
2023-03-29T12:34:02.572Z,54.06
2023-03-29T12:37:02.167Z,53.71
2023-03-29T12:39:51.698Z,54.60
2023-03-29T12:43:04.073Z,55.39
2023-03-29T12:46:01.921Z,54.97
2023-03-29T12:48:30.579Z,55.12
2023-03-29T12:51:04.084Z,54.79
2023-03-29T12:53:36.124Z,55.18
2023-03-29T12:56:04.072Z,55.50
2023-03-29T12:58:43.105Z,56.35
2023-03-29T13:01:23.417Z,56.93
2023-03-29T13:03:56.910Z,57.62
2023-03-29T13:06:31.462Z,58.49
2023-03-29T13:09:05.888Z,57.58
2023-03-29T13:11:41.455Z,57.63
2023-03-29T13:14:19.409Z,57.15
2023-03-29T13:16:47.013Z,56.54
2023-03-29T13:19:46.348Z,56.04
2023-03-29T13:22:45.964Z,55.70
2023-03-29T13:25:34.600Z,55.86
2023-03-29T13:28:40.765Z,56.16
2023-03-29T13:31:32.460Z,56.73
2023-03-29T13:34:19.001Z,57.63
2023-03-29T13:36:52.365Z,57.66
2023-03-29T13:39:31.162Z,58.38
2023-03-29T13:42:25.664Z,58.65
2023-03-29T13:44:53.986Z,58.81
2023-03-29T13:47:33.234Z,58.91
2023-03-29T13:50:16.803Z,59.17
2023-03-29T13:52:57.937Z,59.01
2023-03-29T13:55:30.922Z,58.70
2023-03-29T13:58:01.751Z,58.14
2023-03-29T14:00:37.359Z,58.00
2023-03-29T14:03:14.529Z,57.88
2023-03-29T14:05:48.161Z,57.94
2023-03-29T14:08:37.604Z,57.71
2023-03-29T14:11:07.777Z,58.21
2023-03-29T14:13:35.393Z,58.36
2023-03-29T14:16:07.266Z,59.07
2023-03-29T14:18:42.685Z,59.80
2023-03-29T14:21:12.801Z,60.24
2023-03-29T14:23:43.868Z,60.71
2023-03-29T14:26:23.059Z,61.72
2023-03-29T14:28:53.216Z,61.61
2023-03-29T14:31:41.843Z,62.21
2023-03-29T14:34:15.042Z,61.86
2023-03-29T14:36:45.774Z,61.78
2023-03-29T14:39:18.259Z,62.30
2023-03-29T14:41:53.665Z,62.42
2023-03-29T14:44:23.606Z,62.89
2023-03-29T14:46:50.890Z,62.53
2023-03-29T14:49:21.673Z,63.60
2023-03-29T14:51:49.728Z,63.92
2023-03-29T14:54:22.685Z,64.36
2023-03-29T14:56:51.189Z,64.06
2023-03-29T14:59:41.077Z,64.76
2023-03-29T15:02:29.499Z,64.85
2023-03-29T15:05:24.283Z,64.75
2023-03-29T15:07:56.330Z,64.31
2023-03-29T15:10:23.974Z,63.02
2023-03-29T15:12:51.788Z,63.89
2023-03-29T15:15:19.083Z,64.04
2023-03-29T15:17:52.167Z,63.93
2023-03-29T15:20:23.493Z,64.81
2023-03-29T15:22:56.801Z,65.01
2023-03-29T15:25:27.988Z,64.63
2023-03-29T15:28:00.258Z,64.52
2023-03-29T15:30:35.280Z,63.95
2023-03-29T15:33:29.776Z,64.44
2023-03-29T15:35:57.531Z,64.01
2023-03-29T15:38:33.154Z,64.38
2023-03-29T15:41:08.606Z,64.81
2023-03-29T15:43:36.811Z,65.26
2023-03-29T15:46:04.321Z,65.47
2023-03-29T15:48:33.934Z,66.00
2023-03-29T15:51:05.722Z,66.61
2023-03-29T15:53:33.944Z,66.41
2023-03-29T15:56:02.834Z,67.02
2023-03-29T15:58:32.572Z,67.33
2023-03-29T16:01:34.977Z,67.35
2023-03-29T16:04:05.588Z,67.24
2023-03-29T16:06:34.869Z,67.23
2023-03-29T16:09:02.247Z,67.00
2023-03-29T16:11:29.360Z,67.11
2023-03-29T16:13:57.079Z,67.42
2023-03-29T16:16:24.825Z,67.15
2023-03-29T16:18:52.221Z,67.12
2023-03-29T16:21:22.374Z,66.64
2023-03-29T16:23:50.637Z,66.67
2023-03-29T16:26:18.002Z,66.77
2023-03-29T16:28:45.329Z,67.28
2023-03-29T16:31:14.253Z,67.67
2023-03-29T16:33:41.949Z,67.47
2023-03-29T16:36:10.234Z,67.58
2023-03-29T16:38:37.753Z,68.08
2023-03-29T16:41:05.269Z,67.54
2023-03-29T16:43:32.553Z,67.31
2023-03-29T16:45:59.949Z,67.92
2023-03-29T16:48:27.389Z,68.09
2023-03-29T16:50:54.671Z,67.76
2023-03-29T16:53:27.115Z,68.11
2023-03-29T16:55:54.756Z,67.92
2023-03-29T16:58:23.372Z,67.64
2023-03-29T17:00:52.089Z,67.52
2023-03-29T17:03:20.126Z,67.99
2023-03-29T17:05:52.108Z,68.90
2023-03-29T17:08:20.511Z,68.10
2023-03-29T17:10:52.882Z,69.26
2023-03-29T17:13:21.331Z,68.57
2023-03-29T17:15:51.769Z,68.51
2023-03-29T17:18:24.005Z,69.83
2023-03-29T17:20:53.034Z,70.17
2023-03-29T17:23:20.237Z,70.42
2023-03-29T17:25:49.066Z,70.58
2023-03-29T17:28:16.187Z,71.42
2023-03-29T17:30:46.474Z,72.59
2023-03-29T17:33:15.950Z,72.68
2023-03-29T17:35:44.513Z,72.54
2023-03-29T17:38:12.320Z,72.41
2023-03-29T17:40:39.497Z,72.51
2023-03-29T17:43:06.810Z,72.56
2023-03-29T17:45:35.469Z,73.18
2023-03-29T17:48:06.209Z,73.44
2023-03-29T17:50:34.302Z,73.06
2023-03-29T17:53:01.474Z,73.30
2023-03-29T17:55:29.201Z,73.86
2023-03-29T17:57:56.531Z,73.49
2023-03-29T18:00:23.638Z,73.48
2023-03-29T18:02:50.997Z,73.45
2023-03-29T18:05:18.767Z,73.69
2023-03-29T18:07:46.304Z,73.31
2023-03-29T18:10:13.604Z,73.52
2023-03-29T18:12:40.821Z,73.48
2023-03-29T18:15:08.588Z,73.83
2023-03-29T18:17:35.936Z,73.61
2023-03-29T18:20:09.540Z,73.37
2023-03-29T18:22:36.706Z,73.04
2023-03-29T18:25:05.694Z,72.55
2023-03-29T18:27:33.053Z,72.44
2023-03-29T18:30:00.507Z,72.23
2023-03-29T18:32:31.313Z,72.55
2023-03-29T18:34:58.868Z,72.58
2023-03-29T18:37:26.294Z,72.89
2023-03-29T18:39:53.382Z,72.62
2023-03-29T18:42:22.408Z,71.96
2023-03-29T18:44:49.626Z,72.87
2023-03-29T18:47:18.711Z,72.78
2023-03-29T18:49:47.605Z,72.50
2023-03-29T18:52:14.653Z,72.64
2023-03-29T18:54:42.021Z,72.92
2023-03-29T18:57:09.412Z,72.86
2023-03-29T18:59:37.017Z,73.50
2023-03-29T19:02:04.765Z,73.41
2023-03-29T19:04:32.005Z,73.67
2023-03-29T19:07:01.434Z,73.88
2023-03-29T19:09:28.916Z,73.65
2023-03-29T19:11:58.069Z,74.22
2023-03-29T19:14:25.540Z,74.54
2023-03-29T19:16:53.395Z,74.07
2023-03-29T19:19:23.373Z,73.99
2023-03-29T19:21:50.480Z,74.18
2023-03-29T19:24:18.160Z,74.06
2023-03-29T19:26:48.722Z,73.37
2023-03-29T19:29:15.934Z,73.27
2023-03-29T19:31:43.172Z,73.19
2023-03-29T19:34:11.432Z,72.44
2023-03-29T19:36:39.004Z,72.79
2023-03-29T19:39:07.287Z,72.90
2023-03-29T19:41:34.502Z,73.33
2023-03-29T19:44:01.908Z,73.09
2023-03-29T19:46:29.824Z,72.52
2023-03-29T19:48:58.488Z,72.01
2023-03-29T19:51:29.979Z,72.05
2023-03-29T19:53:57.649Z,72.24
2023-03-29T19:56:26.658Z,72.54
2023-03-29T19:58:54.310Z,72.48
2023-03-29T20:01:22.054Z,73.15
2023-03-29T20:03:49.857Z,72.42
2023-03-29T20:06:18.203Z,71.97
2023-03-29T20:08:45.892Z,72.66
2023-03-29T20:11:15.099Z,72.02
2023-03-29T20:13:45.315Z,72.74
2023-03-29T20:16:16.131Z,73.19
2023-03-29T20:18:46.710Z,72.74
2023-03-29T20:21:16.702Z,73.45
2023-03-29T20:23:44.893Z,72.80
2023-03-29T20:26:12.068Z,72.75
2023-03-29T20:28:39.419Z,72.61
2023-03-29T20:31:11.404Z,72.84
2023-03-29T20:33:39.488Z,73.04
2023-03-29T20:36:06.906Z,72.68
2023-03-29T20:38:35.472Z,72.71
2023-03-29T20:41:04.791Z,72.43
2023-03-29T20:43:37.661Z,72.61
2023-03-29T20:46:06.079Z,72.75
2023-03-29T20:48:33.477Z,72.41
2023-03-29T20:51:03.357Z,72.64
2023-03-29T20:53:34.570Z,72.46
2023-03-29T20:56:03.447Z,71.81
2023-03-29T20:58:30.764Z,71.83
2023-03-29T21:00:58.996Z,71.92
2023-03-29T21:03:26.301Z,72.17
2023-03-29T21:05:55.241Z,71.74
2023-03-29T21:08:22.334Z,71.47
2023-03-29T21:10:49.490Z,72.33
2023-03-29T21:13:18.209Z,72.39
2023-03-29T21:15:46.657Z,72.16
2023-03-29T21:18:14.154Z,72.10
2023-03-29T21:20:42.104Z,72.10
2023-03-29T21:23:09.210Z,72.53
2023-03-29T21:25:37.366Z,72.57
2023-03-29T21:28:04.526Z,72.88
2023-03-29T21:30:32.263Z,72.76
2023-03-29T21:33:00.615Z,72.17
2023-03-29T21:35:28.320Z,71.94
2023-03-29T21:37:55.565Z,72.16
2023-03-29T21:40:23.046Z,71.64
2023-03-29T21:42:50.497Z,71.46
2023-03-29T21:45:17.708Z,71.87
2023-03-29T21:47:45.045Z,71.30
2023-03-29T21:50:12.244Z,71.21
2023-03-29T21:52:39.283Z,71.39
2023-03-29T21:55:06.679Z,71.61
2023-03-29T21:57:33.760Z,71.39
2023-03-29T22:00:00.950Z,71.28
2023-03-29T22:02:30.146Z,71.04
2023-03-29T22:04:57.335Z,71.08
2023-03-29T22:07:24.339Z,70.96
2023-03-29T22:09:51.467Z,71.63
2023-03-29T22:12:18.900Z,72.14
2023-03-29T22:14:46.083Z,71.89
2023-03-29T22:17:13.759Z,71.60
2023-03-29T22:19:41.878Z,72.42
2023-03-29T22:22:13.731Z,71.91
2023-03-29T22:24:42.339Z,72.25
2023-03-29T22:27:10.780Z,71.72
2023-03-29T22:29:37.958Z,71.83
2023-03-29T22:32:06.188Z,72.20
2023-03-29T22:34:33.574Z,71.61
2023-03-29T22:37:00.914Z,71.66
2023-03-29T22:39:28.624Z,71.38
2023-03-29T22:41:56.147Z,71.79
2023-03-29T22:44:23.769Z,71.15
2023-03-29T22:46:51.761Z,71.13
2023-03-29T22:49:19.815Z,71.16
2023-03-29T22:51:47.143Z,72.22
2023-03-29T22:54:14.289Z,71.49
2023-03-29T22:56:41.440Z,71.13
2023-03-29T22:59:08.923Z,71.44
2023-03-29T23:01:36.082Z,71.39
2023-03-29T23:04:04.358Z,71.54
2023-03-29T23:06:31.739Z,72.39
2023-03-29T23:08:58.906Z,71.75
2023-03-29T23:11:26.583Z,71.67
2023-03-29T23:13:56.732Z,71.48
2023-03-29T23:16:25.527Z,71.79
2023-03-29T23:18:52.604Z,71.92
2023-03-29T23:21:19.719Z,72.39
2023-03-29T23:23:46.956Z,72.42
2023-03-29T23:26:14.166Z,71.41
2023-03-29T23:28:41.296Z,71.90
2023-03-29T23:31:11.682Z,71.61
2023-03-29T23:33:41.405Z,71.76
2023-03-29T23:36:14.029Z,72.20
2023-03-29T23:38:42.515Z,71.77
2023-03-29T23:41:12.883Z,71.93
2023-03-29T23:43:42.194Z,72.33
2023-03-29T23:46:17.481Z,72.71
2023-03-29T23:48:46.222Z,71.65
2023-03-29T23:51:13.516Z,71.30
2023-03-29T23:53:41.394Z,72.55
2023-03-29T23:56:09.257Z,72.35
2023-03-29T23:58:37.910Z,71.62
